Time;durP1;ratioP1;P1;durP2;ratioP2;P2;SDS_P1;SDS_P2;PMS_P1;PMS_P2;Temp;Humidity;BMP_temperature;BMP_pressure;BME280_temperature;BME280_humidity;BME280_pressure;Samples;Min_cycle;Max_cycle;Signal;HPM_P1;HPM_P2
2021/08/07 00:00:20;;;;;;;91.95;34.65;;;;;;;;;;5266130;27;20029;-84
2021/08/07 00:02:49;;;;;;;64.40;34.53;;;;;;;;;;5266700;27;20029;-84
2021/08/07 00:05:18;;;;;;;89.97;42.40;;;;;;;;;;5266995;27;20025;-84
2021/08/07 00:07:46;;;;;;;101.82;44.60;;;;;;;;;;5267895;27;20035;-84
2021/08/07 00:10:17;;;;;;;47.15;41.97;;;;;;;;;;5266295;27;20075;-84
2021/08/07 00:12:45;;;;;;;46.65;41.60;;;;;;;;;;5269155;27;20020;-84
2021/08/07 00:15:14;;;;;;;44.67;40.17;;;;;;;;;;5268621;27;20039;-83
2021/08/07 00:17:42;;;;;;;42.95;38.88;;;;;;;;;;5270527;27;20058;-84
2021/08/07 00:20:11;;;;;;;44.95;40.20;;;;;;;;;;5271089;27;20349;-84
2021/08/07 00:22:39;;;;;;;43.95;39.45;;;;;;;;;;5268317;27;20036;-84
2021/08/07 00:25:08;;;;;;;44.80;39.53;;;;;;;;;;5250624;27;20029;-84
2021/08/07 00:27:37;;;;;;;46.00;41.08;;;;;;;;;;5268276;27;20049;-84
2021/08/07 00:30:06;;;;;;;41.60;37.45;;;;;;;;;;5269320;27;20037;-83
2021/08/07 00:32:35;;;;;;;40.83;37.28;;;;;;;;;;5268451;27;20033;-84
2021/08/07 00:35:07;;;;;;;36.10;32.90;;;;;;;;;;5267256;27;20204;-84
2021/08/07 00:37:37;;;;;;;36.90;33.15;;;;;;;;;;5268121;27;20034;-84
2021/08/07 00:40:06;;;;;;;36.85;33.38;;;;;;;;;;5248713;27;20040;-84
2021/08/07 00:42:35;;;;;;;34.92;31.20;;;;;;;;;;5266678;27;20412;-84
2021/08/07 00:45:07;;;;;;;51.67;43.95;;;;;;;;;;5270375;27;20024;-83
2021/08/07 00:47:44;;;;;;;48.67;41.33;;;;;;;;;;5269815;27;20076;-84
2021/08/07 00:50:13;;;;;;;44.10;39.42;;;;;;;;;;5266624;27;20038;-84
2021/08/07 00:52:42;;;;;;;44.42;40.03;;;;;;;;;;5268191;27;20101;-84
2021/08/07 00:55:13;;;;;;;46.10;40.38;;;;;;;;;;5268091;27;20009;-84
2021/08/07 00:57:42;;;;;;;43.30;38.80;;;;;;;;;;5249386;27;20380;-83
2021/08/07 01:00:12;;;;;;;45.45;40.08;;;;;;;;;;5269390;27;20050;-84
2021/08/07 01:02:43;;;;;;;47.38;39.50;;;;;;;;;;5270244;27;20035;-84
2021/08/07 01:05:21;;;;;;;40.78;36.90;;;;;;;;;;5268968;27;20050;-84
2021/08/07 01:08:19;;;;;;;39.97;35.80;;;;;;;;;;5268570;27;20003;-84
2021/08/07 01:11:03;;;;;;;26.27;23.95;;;;;;;;;;5255713;27;20054;-83
2021/08/07 01:13:34;;;;;;;26.70;24.20;;;;;;;;;;5269763;27;20231;-84
2021/08/07 01:16:07;;;;;;;25.88;23.60;;;;;;;;;;5269313;27;20017;-85
2021/08/07 01:18:37;;;;;;;33.72;30.27;;;;;;;;;;5269564;27;20010;-84
2021/08/07 01:21:11;;;;;;;26.75;24.17;;;;;;;;;;5268709;27;20487;-84
2021/08/07 01:23:49;;;;;;;40.88;37.05;;;;;;;;;;5266375;27;20371;-84
2021/08/07 01:26:32;;;;;;;40.78;36.88;;;;;;;;;;5266915;27;20029;-84
2021/08/07 01:29:02;;;;;;;42.28;37.83;;;;;;;;;;5264636;27;20029;-83
2021/08/07 01:31:32;;;;;;;41.22;37.05;;;;;;;;;;5269264;27;20025;-84
2021/08/07 01:34:01;;;;;;;38.28;34.50;;;;;;;;;;5264817;27;20036;-84
2021/08/07 01:36:34;;;;;;;37.47;34.03;;;;;;;;;;5260692;27;20044;-83
2021/08/07 01:39:03;;;;;;;38.28;34.13;;;;;;;;;;5267307;27;20005;-83
2021/08/07 01:41:32;;;;;;;39.08;34.47;;;;;;;;;;5269608;27;20067;-84
2021/08/07 01:44:02;;;;;;;37.50;33.83;;;;;;;;;;5270015;27;20033;-84
2021/08/07 01:46:54;;;;;;;29.30;26.70;;;;;;;;;;5265441;27;20026;-83
2021/08/07 01:49:51;;;;;;;29.27;26.37;;;;;;;;;;5240924;27;20123;-84
2021/08/07 01:52:26;;;;;;;25.92;23.67;;;;;;;;;;5246286;27;20063;-84
2021/08/07 01:54:59;;;;;;;26.48;24.37;;;;;;;;;;5262641;27;20434;-83
2021/08/07 01:57:30;;;;;;;25.73;23.73;;;;;;;;;;5249181;27;20024;-83
2021/08/07 02:00:00;;;;;;;38.05;34.70;;;;;;;;;;5268133;27;20079;-84
2021/08/07 02:02:29;;;;;;;37.67;34.20;;;;;;;;;;5267681;27;20029;-84
2021/08/07 02:04:59;;;;;;;37.80;34.25;;;;;;;;;;5247007;27;20065;-83
2021/08/07 02:07:28;;;;;;;38.90;35.35;;;;;;;;;;5269143;27;20413;-83
2021/08/07 02:09:58;;;;;;;41.05;37.35;;;;;;;;;;5249846;27;20392;-83
2021/08/07 02:12:27;;;;;;;41.50;37.65;;;;;;;;;;5268084;27;20032;-83
2021/08/07 02:14:57;;;;;;;41.45;37.75;;;;;;;;;;5269391;27;20021;-83
2021/08/07 02:17:26;;;;;;;43.42;39.35;;;;;;;;;;5251853;27;20029;-84
2021/08/07 02:19:55;;;;;;;39.30;35.78;;;;;;;;;;5271868;27;20018;-84
2021/08/07 02:22:25;;;;;;;43.85;39.83;;;;;;;;;;5270488;27;20013;-83
2021/08/07 02:24:55;;;;;;;44.10;39.90;;;;;;;;;;5265661;27;20033;-84
2021/08/07 02:27:24;;;;;;;30.48;27.85;;;;;;;;;;5266723;27;20423;-83
2021/08/07 02:29:55;;;;;;;34.30;31.27;;;;;;;;;;5266242;27;20318;-84
2021/08/07 02:32:24;;;;;;;33.63;30.73;;;;;;;;;;5270525;27;20026;-84
2021/08/07 02:34:53;;;;;;;34.10;31.40;;;;;;;;;;5264670;27;20057;-84
2021/08/07 02:37:22;;;;;;;33.30;30.58;;;;;;;;;;5268501;27;20037;-85
2021/08/07 02:39:51;;;;;;;39.95;36.25;;;;;;;;;;5248790;27;20034;-84
2021/08/07 02:42:20;;;;;;;40.65;36.25;;;;;;;;;;5270601;27;20420;-84
2021/08/07 02:44:48;;;;;;;40.60;36.85;;;;;;;;;;5267881;27;20365;-84
2021/08/07 02:47:18;;;;;;;41.30;37.25;;;;;;;;;;5271021;27;20025;-83
2021/08/07 02:49:47;;;;;;;41.95;37.67;;;;;;;;;;5267148;27;20021;-83
2021/08/07 02:52:16;;;;;;;46.30;41.72;;;;;;;;;;5270339;27;20060;-83
2021/08/07 02:54:45;;;;;;;46.40;42.17;;;;;;;;;;5269298;27;20352;-84
2021/08/07 02:57:13;;;;;;;44.80;40.75;;;;;;;;;;5250486;27;20048;-83
2021/08/07 02:59:43;;;;;;;45.00;40.45;;;;;;;;;;5270200;27;20448;-84
2021/08/07 03:02:12;;;;;;;44.38;40.25;;;;;;;;;;5270462;27;20018;-84
2021/08/07 03:04:41;;;;;;;97.25;30.80;;;;;;;;;;5270920;27;20044;-83
2021/08/07 03:07:10;;;;;;;57.53;28.87;;;;;;;;;;5269301;27;20475;-83
2021/08/07 03:09:39;;;;;;;69.72;27.92;;;;;;;;;;5272518;27;20021;-84
2021/08/07 09:02:01;;;;;;;69.95;62.92;;;;;;;;;;5220014;27;20049;-85
2021/08/07 09:04:30;;;;;;;62.72;56.90;;;;;;;;;;5221702;27;20109;-85
2021/08/07 09:06:59;;;;;;;44.97;40.28;;;;;;;;;;5222385;27;20053;-85
2021/08/07 09:09:35;;;;;;;39.13;34.95;;;;;;;;;;5223298;27;20543;-85
2021/08/07 09:12:05;;;;;;;30.80;27.50;;;;;;;;;;5202191;27;20550;-85
2021/08/07 09:14:39;;;;;;;24.08;21.85;;;;;;;;;;5222466;27;20090;-85
2021/08/07 09:17:08;;;;;;;15.02;13.50;;;;;;;;;;5225495;27;20050;-84
2021/08/07 09:19:39;;;;;;;9.73;2.10;;;;;;;;;;5220534;27;20069;-85
2021/08/07 09:22:17;;;;;;;8.07;1.87;;;;;;;;;;5225286;27;20053;-85
2021/08/07 09:24:58;;;;;;;9.32;1.85;;;;;;;;;;5221574;27;20396;-85
2021/08/07 09:27:31;;;;;;;8.63;1.83;;;;;;;;;;5219194;27;20042;-85
2021/08/07 09:30:23;;;;;;;10.73;2.20;;;;;;;;;;5219331;27;20035;-86
2021/08/07 09:33:02;;;;;;;6.57;1.90;;;;;;;;;;5220685;27;20023;-85
2021/08/07 09:35:36;;;;;;;7.45;2.10;;;;;;;;;;5224649;27;20018;-85
2021/08/07 09:38:05;;;;;;;6.47;1.83;;;;;;;;;;5225577;27;20287;-85
2021/08/07 09:40:45;;;;;;;6.10;1.40;;;;;;;;;;5224341;27;20066;-85
2021/08/07 09:43:15;;;;;;;9.05;1.77;;;;;;;;;;5230088;27;20092;-85
2021/08/07 09:45:44;;;;;;;8.88;2.37;;;;;;;;;;5226461;27;20077;-85
2021/08/07 09:48:16;;;;;;;7.68;1.80;;;;;;;;;;5225062;27;20050;-85
2021/08/07 09:50:45;;;;;;;9.85;2.10;;;;;;;;;;5225584;27;20046;-85
2021/08/07 09:53:21;;;;;;;9.45;1.95;;;;;;;;;;5224608;27;20038;-85
2021/08/07 09:56:03;;;;;;;9.77;2.20;;;;;;;;;;5229184;27;20033;-85
2021/08/07 09:58:33;;;;;;;9.05;2.10;;;;;;;;;;5225494;27;20014;-85
2021/08/07 10:01:02;;;;;;;9.35;1.77;;;;;;;;;;5223600;27;20058;-85
2021/08/07 10:03:32;;;;;;;7.72;1.87;;;;;;;;;;5224728;27;20045;-85
2021/08/07 10:06:19;;;;;;;8.90;2.12;;;;;;;;;;5201171;27;20344;-85
2021/08/07 10:08:50;;;;;;;9.55;2.25;;;;;;;;;;5224739;27;20402;-86
2021/08/07 10:11:20;;;;;;;8.25;1.92;;;;;;;;;;5224750;27;20018;-86
2021/08/07 10:13:50;;;;;;;9.90;2.50;;;;;;;;;;5228284;27;20010;-85
2021/08/07 10:16:19;;;;;;;9.05;2.17;;;;;;;;;;5228121;27;20011;-85
2021/08/07 10:18:48;;;;;;;6.53;1.70;;;;;;;;;;5224133;27;20047;-85
2021/08/07 10:21:17;;;;;;;11.12;2.50;;;;;;;;;;5222735;27;20072;-84
2021/08/07 10:23:48;;;;;;;9.45;2.10;;;;;;;;;;5225365;27;20017;-85
2021/08/07 10:26:19;;;;;;;7.10;2.12;;;;;;;;;;5223963;27;20019;-86
2021/08/07 10:28:53;;;;;;;6.70;2.08;;;;;;;;;;5222214;27;20346;-86
2021/08/07 10:31:22;;;;;;;10.00;2.47;;;;;;;;;;5224697;27;20440;-85
2021/08/07 10:34:00;;;;;;;9.85;2.62;;;;;;;;;;5224695;27;20352;-86
2021/08/07 10:36:29;;;;;;;7.72;2.00;;;;;;;;;;5226097;27;20018;-85
2021/08/07 10:38:58;;;;;;;12.02;2.42;;;;;;;;;;5225936;27;20065;-86
2021/08/07 10:41:28;;;;;;;9.00;2.37;;;;;;;;;;5205268;27;20026;-85
2021/08/07 10:43:57;;;;;;;7.57;2.15;;;;;;;;;;5223303;27;20027;-86
2021/08/07 10:46:26;;;;;;;10.48;2.60;;;;;;;;;;5223256;27;20034;-85
2021/08/07 10:48:55;;;;;;;5.40;1.77;;;;;;;;;;5203453;27;20026;-85
2021/08/07 10:51:24;;;;;;;8.10;2.35;;;;;;;;;;5221363;27;20455;-86
2021/08/07 10:53:53;;;;;;;8.73;2.55;;;;;;;;;;5227686;27;20039;-86
2021/08/07 10:56:34;;;;;;;10.85;2.30;;;;;;;;;;5226050;27;20369;-86
2021/08/07 10:59:11;;;;;;;5.45;2.03;;;;;;;;;;5225885;27;20022;-85
2021/08/07 11:01:41;;;;;;;9.43;2.37;;;;;;;;;;5222957;27;20665;-85
2021/08/07 11:04:11;;;;;;;8.73;2.10;;;;;;;;;;5224169;27;20034;-86
2021/08/07 11:06:40;;;;;;;11.15;2.35;;;;;;;;;;5226560;27;20019;-85
2021/08/07 11:09:27;;;;;;;9.55;2.10;;;;;;;;;;5227005;27;20018;-85
2021/08/07 11:12:12;;;;;;;6.78;2.08;;;;;;;;;;5227120;27;20360;-86
2021/08/07 11:14:45;;;;;;;8.05;2.25;;;;;;;;;;5209470;27;20011;-85
2021/08/07 11:17:13;;;;;;;9.40;2.50;;;;;;;;;;5207744;27;20253;-86
2021/08/07 11:19:49;;;;;;;9.02;2.37;;;;;;;;;;5224703;27;20091;-86
2021/08/07 11:22:19;;;;;;;8.55;2.22;;;;;;;;;;5223883;27;20034;-86
2021/08/07 11:24:50;;;;;;;10.07;2.55;;;;;;;;;;5229100;27;20028;-86
2021/08/07 11:27:45;;;;;;;9.63;2.00;;;;;;;;;;5227414;27;20318;-86
2021/08/07 11:30:19;;;;;;;8.90;2.15;;;;;;;;;;5224028;27;20487;-85
2021/08/07 11:33:00;;;;;;;9.07;2.17;;;;;;;;;;5224528;27;20823;-85
2021/08/07 11:38:13;;;;;;;10.63;2.10;;;;;;;;;;5206444;27;20400;-85
2021/08/07 11:40:44;;;;;;;11.18;2.40;;;;;;;;;;5229301;27;20018;-85
2021/08/07 11:43:23;;;;;;;10.55;2.12;;;;;;;;;;5228886;27;20036;-85
2021/08/07 11:45:51;;;;;;;7.07;1.85;;;;;;;;;;5229332;27;20017;-84
2021/08/07 11:48:23;;;;;;;10.63;2.65;;;;;;;;;;5228947;27;20400;-85
2021/08/07 11:50:52;;;;;;;7.28;2.25;;;;;;;;;;5228776;27;20034;-85
2021/08/07 11:53:22;;;;;;;11.68;2.60;;;;;;;;;;5227706;27;20026;-85
2021/08/07 11:56:01;;;;;;;10.55;2.25;;;;;;;;;;5227625;27;20049;-85
2021/08/07 11:58:30;;;;;;;10.13;2.10;;;;;;;;;;5230360;27;20090;-85
2021/08/07 12:01:00;;;;;;;11.55;2.20;;;;;;;;;;5227606;27;20018;-85
2021/08/07 12:03:39;;;;;;;12.18;2.72;;;;;;;;;;5209508;27;20034;-85
2021/08/07 12:06:07;;;;;;;11.10;2.62;;;;;;;;;;5230332;27;20026;-85
2021/08/07 12:08:37;;;;;;;11.25;2.45;;;;;;;;;;5228342;27;20049;-84
2021/08/07 12:11:07;;;;;;;8.63;2.40;;;;;;;;;;5228527;27;20033;-84
2021/08/07 12:13:40;;;;;;;8.95;2.15;;;;;;;;;;5208645;27;20035;-85
2021/08/07 12:16:10;;;;;;;6.53;2.00;;;;;;;;;;5226362;27;20010;-84
2021/08/07 12:18:46;;;;;;;10.95;1.95;;;;;;;;;;5228221;27;20022;-85
2021/08/07 12:21:24;;;;;;;9.52;2.28;;;;;;;;;;5229032;27;20045;-85
2021/08/07 12:23:57;;;;;;;14.20;2.70;;;;;;;;;;5229953;27;20417;-85
2021/08/07 12:26:26;;;;;;;10.70;2.65;;;;;;;;;;5229210;27;20028;-84
2021/08/07 12:29:05;;;;;;;8.15;2.53;;;;;;;;;;5229287;27;20042;-85
2021/08/07 12:31:44;;;;;;;7.62;2.03;;;;;;;;;;5226587;27;20069;-85
2021/08/07 12:34:14;;;;;;;10.40;2.62;;;;;;;;;;5226534;27;20080;-85
2021/08/07 12:36:43;;;;;;;9.73;2.42;;;;;;;;;;5229160;27;20403;-85
2021/08/07 12:39:11;;;;;;;10.52;2.65;;;;;;;;;;5227212;27;20015;-85
2021/08/07 12:41:40;;;;;;;12.25;2.62;;;;;;;;;;5228654;27;20045;-85
2021/08/07 12:44:22;;;;;;;11.60;2.47;;;;;;;;;;5228028;27;20429;-85
2021/08/07 12:46:54;;;;;;;10.20;2.62;;;;;;;;;;5229263;27;20033;-85
2021/08/07 12:49:33;;;;;;;10.88;2.62;;;;;;;;;;5229568;27;21019;-84
2021/08/07 12:52:15;;;;;;;8.68;2.30;;;;;;;;;;5230264;27;20022;-85
2021/08/07 12:54:46;;;;;;;10.85;2.33;;;;;;;;;;5228963;27;20385;-85
2021/08/07 12:57:25;;;;;;;12.65;2.70;;;;;;;;;;5225902;27;20049;-85
2021/08/07 12:59:55;;;;;;;9.93;2.47;;;;;;;;;;5227401;27;20023;-84
2021/08/07 13:02:25;;;;;;;10.48;2.53;;;;;;;;;;5228771;27;20382;-84
2021/08/07 13:04:55;;;;;;;6.57;2.08;;;;;;;;;;5227499;27;20053;-84
2021/08/07 13:07:28;;;;;;;11.93;2.33;;;;;;;;;;5229753;27;20057;-84
2021/08/07 13:10:16;;;;;;;8.57;1.98;;;;;;;;;;5229594;27;20064;-84
2021/08/07 13:12:45;;;;;;;6.68;1.92;;;;;;;;;;5227459;27;20046;-84
2021/08/07 13:15:14;;;;;;;12.95;2.25;;;;;;;;;;5227085;27;20018;-84
2021/08/07 13:17:44;;;;;;;7.68;2.05;;;;;;;;;;5223865;27;20396;-84
2021/08/07 13:20:14;;;;;;;8.73;2.15;;;;;;;;;;5208314;27;20030;-84
2021/08/07 13:22:57;;;;;;;8.80;2.25;;;;;;;;;;5231132;27;20061;-85
2021/08/07 13:25:26;;;;;;;6.63;1.70;;;;;;;;;;5228300;27;20022;-85
2021/08/07 13:27:58;;;;;;;12.68;2.20;;;;;;;;;;5228433;27;20556;-85
2021/08/07 13:30:27;;;;;;;7.53;2.30;;;;;;;;;;5207201;27;20077;-86
2021/08/07 13:33:03;;;;;;;9.13;2.40;;;;;;;;;;5227696;27;20196;-84
2021/08/07 13:35:33;;;;;;;7.62;1.83;;;;;;;;;;5227235;27;20018;-85
2021/08/07 13:38:02;;;;;;;5.53;1.58;;;;;;;;;;5228137;27;20022;-85
2021/08/07 13:40:32;;;;;;;6.87;2.00;;;;;;;;;;5227053;27;20072;-85
2021/08/07 13:43:01;;;;;;;9.93;2.20;;;;;;;;;;5228216;27;20424;-84
2021/08/07 13:45:29;;;;;;;3.97;1.50;;;;;;;;;;5228747;27;20022;-86
2021/08/07 13:47:58;;;;;;;6.97;1.80;;;;;;;;;;5229272;27;20516;-85
2021/08/07 13:50:26;;;;;;;7.53;2.15;;;;;;;;;;5210799;27;20068;-86
2021/08/07 13:52:55;;;;;;;9.40;1.98;;;;;;;;;;5226251;27;20581;-86
2021/08/07 13:55:23;;;;;;;4.62;1.60;;;;;;;;;;5227478;27;20022;-86
2021/08/07 13:57:52;;;;;;;6.93;1.85;;;;;;;;;;5228857;27;20033;-85
2021/08/07 14:00:21;;;;;;;7.78;1.80;;;;;;;;;;5226384;27;20039;-85
2021/08/07 14:02:49;;;;;;;8.20;1.98;;;;;;;;;;5227833;27;20420;-85
2021/08/07 14:05:18;;;;;;;8.85;2.08;;;;;;;;;;5229241;27;20066;-86
2021/08/07 14:07:47;;;;;;;7.87;2.05;;;;;;;;;;5228675;27;20109;-85
2021/08/07 14:10:15;;;;;;;9.60;1.92;;;;;;;;;;5225150;27;20030;-85
2021/08/07 14:12:45;;;;;;;5.78;1.35;;;;;;;;;;5226282;27;20057;-85
2021/08/07 14:15:14;;;;;;;6.62;1.60;;;;;;;;;;5208202;27;20397;-85
2021/08/07 14:17:43;;;;;;;6.15;1.77;;;;;;;;;;5229291;27;20019;-86
2021/08/07 14:20:11;;;;;;;8.32;1.80;;;;;;;;;;5207705;27;20018;-85
2021/08/07 14:22:40;;;;;;;8.25;1.65;;;;;;;;;;5225251;27;20077;-85
2021/08/07 14:25:09;;;;;;;7.05;1.55;;;;;;;;;;5229616;27;20068;-86
2021/08/07 14:27:37;;;;;;;5.50;1.60;;;;;;;;;;5225857;27;20077;-85
2021/08/07 14:30:06;;;;;;;6.50;1.70;;;;;;;;;;5226351;27;20030;-85
2021/08/07 14:32:35;;;;;;;7.80;1.62;;;;;;;;;;5223219;27;20399;-85
2021/08/07 14:35:04;;;;;;;8.55;2.08;;;;;;;;;;5229743;27;20093;-85
2021/08/07 14:37:32;;;;;;;5.37;1.65;;;;;;;;;;5228129;27;20030;-86
2021/08/07 14:40:02;;;;;;;9.38;1.67;;;;;;;;;;5206952;27;20037;-85
2021/08/07 14:42:30;;;;;;;8.63;1.85;;;;;;;;;;5226534;27;20017;-86
2021/08/07 14:44:58;;;;;;;10.60;2.08;;;;;;;;;;5207091;27;20015;-85
2021/08/07 14:47:27;;;;;;;7.20;1.77;;;;;;;;;;5227173;27;20031;-86
2021/08/07 14:49:55;;;;;;;5.53;1.35;;;;;;;;;;5225075;27;20064;-85
2021/08/07 14:52:24;;;;;;;5.10;1.45;;;;;;;;;;5227432;27;20024;-85
2021/08/07 14:54:52;;;;;;;6.40;1.27;;;;;;;;;;5225621;27;20146;-85
2021/08/07 14:57:22;;;;;;;8.35;1.60;;;;;;;;;;5226839;27;20064;-86
2021/08/07 14:59:51;;;;;;;6.65;1.77;;;;;;;;;;5225680;27;20534;-84
2021/08/07 15:02:19;;;;;;;5.85;1.33;;;;;;;;;;5199213;27;20113;-85
2021/08/07 15:04:48;;;;;;;9.52;1.77;;;;;;;;;;5204417;27;20054;-85
2021/08/07 15:07:18;;;;;;;9.82;1.77;;;;;;;;;;5211304;27;20018;-86
2021/08/07 15:09:47;;;;;;;6.32;1.58;;;;;;;;;;5205063;27;20405;-85
2021/08/07 15:12:15;;;;;;;6.40;1.37;;;;;;;;;;5207631;27;20080;-86
2021/08/07 15:14:44;;;;;;;4.50;1.08;;;;;;;;;;5208144;27;20023;-85
2021/08/07 15:17:12;;;;;;;6.25;1.30;;;;;;;;;;5205239;27;20037;-86
2021/08/07 15:19:41;;;;;;;5.25;0.95;;;;;;;;;;5208466;27;20056;-85
2021/08/07 15:22:09;;;;;;;7.40;1.10;;;;;;;;;;5210327;27;20017;-86
2021/08/07 15:24:38;;;;;;;6.18;1.40;;;;;;;;;;5205084;27;20414;-86
2021/08/07 15:27:06;;;;;;;5.78;1.58;;;;;;;;;;5208882;27;20019;-85
2021/08/07 15:29:35;;;;;;;9.73;1.58;;;;;;;;;;5208649;27;20019;-85
2021/08/07 15:32:03;;;;;;;5.25;1.40;;;;;;;;;;5211074;27;20786;-85
2021/08/07 15:34:32;;;;;;;6.18;1.23;;;;;;;;;;5207909;27;20023;-86
2021/08/07 15:37:00;;;;;;;9.95;1.73;;;;;;;;;;5210517;27;20086;-85
2021/08/07 15:39:29;;;;;;;5.53;1.50;;;;;;;;;;5207769;27;20026;-85
2021/08/07 15:41:57;;;;;;;6.80;1.60;;;;;;;;;;5208134;27;20029;-85
2021/08/07 15:44:25;;;;;;;8.38;1.52;;;;;;;;;;5207846;27;20050;-85
2021/08/07 15:46:54;;;;;;;5.47;1.27;;;;;;;;;;5207672;27;20034;-85
2021/08/07 15:49:22;;;;;;;4.07;1.08;;;;;;;;;;5207818;27;20011;-85
2021/08/07 15:51:51;;;;;;;6.40;1.60;;;;;;;;;;5210944;27;20011;-85
2021/08/07 15:54:20;;;;;;;5.40;1.02;;;;;;;;;;5206151;27;20065;-85
2021/08/07 15:56:48;;;;;;;4.45;1.33;;;;;;;;;;5208199;27;20049;-85
2021/08/07 15:59:16;;;;;;;6.18;1.20;;;;;;;;;;5207053;27;20405;-86
2021/08/07 16:01:45;;;;;;;8.32;2.15;;;;;;;;;;5225028;27;20058;-85
2021/08/07 16:04:15;;;;;;;9.93;3.50;;;;;;;;;;5228707;27;20085;-86
2021/08/07 16:06:43;;;;;;;6.15;4.07;;;;;;;;;;5212790;27;20419;-85
2021/08/07 16:09:11;;;;;;;6.80;2.03;;;;;;;;;;5228971;27;20018;-85
2021/08/07 16:11:41;;;;;;;4.32;2.28;;;;;;;;;;5211755;27;20085;-85
2021/08/07 16:14:10;;;;;;;2.47;1.37;;;;;;;;;;5226789;27;20026;-85
2021/08/07 16:16:39;;;;;;;9.40;1.67;;;;;;;;;;5228968;27;20042;-85
2021/08/07 16:19:08;;;;;;;8.27;2.10;;;;;;;;;;5230281;27;20046;-85
2021/08/07 16:21:36;;;;;;;5.32;1.98;;;;;;;;;;5226483;27;20033;-86
2021/08/07 16:24:05;;;;;;;4.60;3.03;;;;;;;;;;5228850;27;20330;-85
2021/08/07 16:26:34;;;;;;;5.40;4.72;;;;;;;;;;5226764;27;20082;-86
2021/08/07 16:29:03;;;;;;;5.47;4.65;;;;;;;;;;5231889;27;20343;-85
2021/08/07 16:31:32;;;;;;;19.33;17.87;;;;;;;;;;5229361;27;20014;-85
2021/08/07 16:34:01;;;;;;;4.05;2.97;;;;;;;;;;5231332;27;20037;-86
2021/08/07 16:36:29;;;;;;;20.73;19.58;;;;;;;;;;5214339;27;20018;-85
2021/08/07 16:38:58;;;;;;;9.60;8.80;;;;;;;;;;5227837;27;20026;-85
2021/08/07 16:41:27;;;;;;;2.72;1.55;;;;;;;;;;5229582;27;20087;-85
2021/08/07 16:43:56;;;;;;;9.77;9.27;;;;;;;;;;5229182;27;20553;-86
2021/08/07 16:46:26;;;;;;;22.13;21.00;;;;;;;;;;5211943;27;20073;-85
2021/08/07 16:48:55;;;;;;;5.07;4.65;;;;;;;;;;5230418;27;20018;-85
2021/08/07 16:51:23;;;;;;;13.05;12.25;;;;;;;;;;5228691;27;20056;-85
2021/08/07 16:53:52;;;;;;;21.75;20.50;;;;;;;;;;5229165;27;20086;-85
2021/08/07 16:56:20;;;;;;;36.30;34.45;;;;;;;;;;5225457;27;20120;-85
2021/08/07 16:58:49;;;;;;;15.25;14.25;;;;;;;;;;5229381;27;20295;-84
2021/08/07 17:01:18;;;;;;;5.32;4.93;;;;;;;;;;5226841;27;20027;-85
2021/08/07 17:03:47;;;;;;;6.47;6.07;;;;;;;;;;5228436;27;20026;-85
2021/08/07 17:06:15;;;;;;;18.08;16.52;;;;;;;;;;5227757;27;20189;-85
2021/08/07 17:08:45;;;;;;;33.20;31.40;;;;;;;;;;5231707;27;20018;-85
2021/08/07 17:11:17;;;;;;;17.35;16.30;;;;;;;;;;5229167;27;20471;-85
2021/08/07 17:13:46;;;;;;;53.42;50.78;;;;;;;;;;5227498;27;20049;-85
2021/08/07 17:16:15;;;;;;;76.45;72.28;;;;;;;;;;5229588;27;20054;-86
2021/08/07 17:18:44;;;;;;;20.75;19.60;;;;;;;;;;5228412;27;20031;-85
2021/08/07 17:21:12;;;;;;;31.20;29.35;;;;;;;;;;5230571;27;20063;-85
2021/08/07 17:23:41;;;;;;;30.27;28.42;;;;;;;;;;5225841;27;20027;-85
2021/08/07 17:26:09;;;;;;;38.17;35.30;;;;;;;;;;5229310;27;20022;-86
2021/08/07 17:28:40;;;;;;;36.03;33.05;;;;;;;;;;5210329;27;20034;-85
2021/08/07 17:31:09;;;;;;;47.08;42.53;;;;;;;;;;5207812;27;20478;-85
2021/08/07 17:33:40;;;;;;;52.03;46.80;;;;;;;;;;5229553;27;20007;-87
2021/08/07 17:36:09;;;;;;;51.17;46.42;;;;;;;;;;5231106;27;20045;-86
2021/08/07 17:38:38;;;;;;;51.15;46.05;;;;;;;;;;5207743;27;20034;-86
2021/08/07 17:41:07;;;;;;;71.90;64.75;;;;;;;;;;5231304;27;20451;-87
2021/08/07 17:43:55;;;;;;;63.03;56.67;;;;;;;;;;5229534;27;20451;-86
2021/08/07 17:46:23;;;;;;;71.57;63.78;;;;;;;;;;5229753;27;20042;-86
2021/08/07 17:48:52;;;;;;;88.80;75.15;;;;;;;;;;5206422;27;20036;-85
2021/08/07 17:51:21;;;;;;;79.53;66.07;;;;;;;;;;5227655;27;20049;-86
2021/08/07 17:53:49;;;;;;;71.15;65.15;;;;;;;;;;5226541;27;20333;-86
2021/08/07 17:56:18;;;;;;;89.97;82.05;;;;;;;;;;5229783;27;20033;-85
2021/08/07 17:58:50;;;;;;;91.15;83.10;;;;;;;;;;5227197;27;20579;-86
2021/08/07 18:01:19;;;;;;;90.57;82.45;;;;;;;;;;5211430;27;20391;-85
2021/08/07 18:03:49;;;;;;;105.10;94.93;;;;;;;;;;5230383;27;20060;-85
2021/08/07 18:06:18;;;;;;;90.80;82.07;;;;;;;;;;5229877;27;20065;-86
2021/08/07 18:08:49;;;;;;;112.80;71.03;;;;;;;;;;5225291;27;20101;-86
2021/08/07 18:11:19;;;;;;;109.93;70.00;;;;;;;;;;5230477;27;20031;-86
2021/08/07 18:13:50;;;;;;;111.90;69.45;;;;;;;;;;5227819;27;20686;-86
2021/08/07 18:16:19;;;;;;;119.50;69.78;;;;;;;;;;5228171;27;20026;-85
2021/08/07 18:18:47;;;;;;;120.45;70.05;;;;;;;;;;5223561;27;20447;-85
2021/08/07 18:21:16;;;;;;;113.88;65.60;;;;;;;;;;5226377;27;20145;-86
2021/08/07 18:23:45;;;;;;;130.10;73.57;;;;;;;;;;5227917;27;20034;-85
2021/08/07 18:26:14;;;;;;;124.20;74.37;;;;;;;;;;5206753;27;20414;-85
2021/08/07 18:28:43;;;;;;;118.32;72.80;;;;;;;;;;5225890;27;20376;-85
2021/08/07 18:31:12;;;;;;;83.45;75.32;;;;;;;;;;5226782;27;20093;-85
2021/08/07 18:33:40;;;;;;;83.00;75.18;;;;;;;;;;5224521;27;20049;-85
2021/08/07 18:36:10;;;;;;;87.22;78.97;;;;;;;;;;5225985;27;20480;-86
2021/08/07 18:38:39;;;;;;;84.68;76.62;;;;;;;;;;5223468;27;20040;-86
2021/08/07 18:41:07;;;;;;;70.15;63.70;;;;;;;;;;5204829;27;20057;-85
2021/08/07 18:43:36;;;;;;;66.72;60.42;;;;;;;;;;5224575;27;20048;-85
2021/08/07 18:46:04;;;;;;;99.30;67.82;;;;;;;;;;5222604;27;20076;-85
2021/08/07 18:48:33;;;;;;;93.87;65.10;;;;;;;;;;5221416;27;20397;-85
2021/08/07 18:51:02;;;;;;;88.00;61.45;;;;;;;;;;5222586;27;20445;-85
2021/08/07 18:53:31;;;;;;;119.18;76.47;;;;;;;;;;5222062;27;20037;-85
2021/08/07 18:56:00;;;;;;;113.50;69.68;;;;;;;;;;5219234;27;20022;-85
2021/08/07 18:58:29;;;;;;;123.30;76.62;;;;;;;;;;5219652;27;20061;-85
2021/08/07 19:00:58;;;;;;;115.18;74.47;;;;;;;;;;5219065;27;20058;-85
2021/08/07 19:03:27;;;;;;;120.32;79.03;;;;;;;;;;5216265;27;20063;-84
2021/08/07 19:05:57;;;;;;;118.28;73.05;;;;;;;;;;5222644;27;20042;-85
2021/08/07 19:08:26;;;;;;;81.10;72.12;;;;;;;;;;5215613;27;20093;-86
2021/08/07 19:10:54;;;;;;;66.85;60.08;;;;;;;;;;5200544;27;20053;-84
2021/08/07 19:13:23;;;;;;;79.97;71.12;;;;;;;;;;5218217;27;20022;-85
2021/08/07 19:15:52;;;;;;;77.72;64.55;;;;;;;;;;5206239;27;20031;-85
2021/08/07 19:18:20;;;;;;;82.15;64.55;;;;;;;;;;5220087;27;20404;-85
2021/08/07 19:20:49;;;;;;;74.75;63.70;;;;;;;;;;5219590;27;20086;-86
2021/08/07 19:23:18;;;;;;;106.97;61.58;;;;;;;;;;5201289;27;20045;-86
2021/08/07 19:25:46;;;;;;;104.78;64.78;;;;;;;;;;5221602;27;20030;-86
2021/08/07 19:28:15;;;;;;;95.90;63.83;;;;;;;;;;5223536;27;20030;-85
2021/08/07 19:30:44;;;;;;;87.00;59.13;;;;;;;;;;5219133;27;20049;-86
2021/08/07 19:33:12;;;;;;;86.97;60.30;;;;;;;;;;5220616;27;20045;-86
2021/08/07 19:35:41;;;;;;;111.85;73.70;;;;;;;;;;5219779;27;20079;-85
2021/08/07 19:38:09;;;;;;;87.43;61.05;;;;;;;;;;5198642;27;20072;-86
2021/08/07 19:40:38;;;;;;;114.15;71.78;;;;;;;;;;5217775;27;20064;-86
2021/08/07 19:43:06;;;;;;;87.22;60.22;;;;;;;;;;5220514;27;20018;-86
2021/08/07 19:45:37;;;;;;;52.17;46.88;;;;;;;;;;5215881;27;20056;-85
2021/08/07 19:48:06;;;;;;;51.90;46.25;;;;;;;;;;5220949;27;20021;-85
2021/08/07 19:50:35;;;;;;;55.78;50.05;;;;;;;;;;5214986;27;20457;-86
2021/08/07 19:53:04;;;;;;;56.22;50.33;;;;;;;;;;5218823;27;20406;-85
2021/08/07 19:55:33;;;;;;;55.50;49.15;;;;;;;;;;5213767;27;20072;-86
2021/08/07 19:58:02;;;;;;;54.40;48.83;;;;;;;;;;5218925;27;20033;-85
2021/08/07 20:00:30;;;;;;;77.00;50.05;;;;;;;;;;5222724;27;20459;-85
2021/08/07 20:02:59;;;;;;;79.35;52.42;;;;;;;;;;5223739;27;20027;-85
2021/08/07 20:05:27;;;;;;;77.80;54.92;;;;;;;;;;5223059;27;20080;-86
2021/08/07 20:07:56;;;;;;;89.68;59.47;;;;;;;;;;5225460;27;20026;-86
2021/08/07 20:10:24;;;;;;;90.35;57.88;;;;;;;;;;5222370;27;20030;-85
2021/08/07 20:12:53;;;;;;;101.78;63.90;;;;;;;;;;5226767;27;20022;-85
2021/08/07 20:15:21;;;;;;;91.85;51.50;;;;;;;;;;5220673;27;20022;-85
2021/08/07 20:17:50;;;;;;;85.35;49.63;;;;;;;;;;5197489;27;20369;-85
2021/08/07 20:20:20;;;;;;;87.90;52.95;;;;;;;;;;5220348;27;20332;-85
2021/08/07 20:22:48;;;;;;;90.47;55.40;;;;;;;;;;5219659;27;20267;-85
2021/08/07 20:25:18;;;;;;;74.43;66.85;;;;;;;;;;5203301;27;20069;-85
2021/08/07 20:27:46;;;;;;;85.43;76.82;;;;;;;;;;5221585;27;20277;-86
2021/08/07 20:30:16;;;;;;;74.50;67.32;;;;;;;;;;5223278;27;20030;-85
2021/08/07 20:32:45;;;;;;;88.10;78.57;;;;;;;;;;5222078;27;20036;-85
2021/08/07 20:35:20;;;;;;;86.60;77.87;;;;;;;;;;5219804;27;20468;-85
2021/08/07 20:37:50;;;;;;;99.20;75.80;;;;;;;;;;5224444;27;20384;-85
2021/08/07 20:40:19;;;;;;;101.80;75.12;;;;;;;;;;5221266;27;20053;-85